Time;durP1;ratioP1;P1;durP2;ratioP2;P2;SDS_P1;SDS_P2;PMS_P1;PMS_P2;Temp;Humidity;BMP_temperature;BMP_pressure;BME280_temperature;BME280_humidity;BME280_pressure;Samples;Min_cycle;Max_cycle;Signal;HPM_P1;HPM_P2
2022/12/30 00:00:30;;;;;;;0.40;0.40;;;15.20;91.70;;;;;;5074727;28;20285;-68
2022/12/30 00:03:18;;;;;;;0.40;0.40;;;15.20;91.70;;;;;;5076091;28;20200;-68
2022/12/30 00:06:14;;;;;;;0.40;0.40;;;15.20;91.70;;;;;;5074839;28;20231;-69
2022/12/30 00:09:02;;;;;;;0.40;0.40;;;15.20;91.70;;;;;;5075000;28;20200;-68
2022/12/30 00:11:51;;;;;;;0.40;0.40;;;15.20;91.70;;;;;;5074542;28;20197;-68
2022/12/30 00:33:33;;;;;;;0.40;0.40;;;15.20;91.70;;;;;;5075502;28;20201;-69
2022/12/30 00:36:23;;;;;;;0.40;0.40;;;15.10;91.70;;;;;;5111312;22;20324;-65
2022/12/30 00:39:11;;;;;;;0.40;0.40;;;15.10;91.60;;;;;;5093059;28;20210;-65
2022/12/30 00:45:07;;;;;;;0.40;0.40;;;15.10;91.70;;;;;;5091243;28;20219;-65
2022/12/30 00:47:55;;;;;;;0.40;0.40;;;15.10;91.60;;;;;;5091782;28;20773;-65
2022/12/30 00:56:54;;;;;;;0.40;0.40;;;15.10;91.60;;;;;;5091206;28;20776;-65
2022/12/30 00:59:42;;;;;;;0.40;0.40;;;15.10;91.50;;;;;;5092390;28;20200;-65
2022/12/30 01:02:32;;;;;;;0.40;0.40;;;15.10;91.40;;;;;;5092829;28;20245;-65
2022/12/30 01:05:20;;;;;;;0.40;0.40;;;15.10;91.50;;;;;;5092370;28;20216;-65
2022/12/30 01:08:08;;;;;;;0.40;0.40;;;15.10;91.40;;;;;;5092660;28;20196;-65
2022/12/30 01:10:56;;;;;;;0.40;0.40;;;15.10;91.50;;;;;;5091942;28;20220;-65
2022/12/30 01:13:44;;;;;;;0.40;0.40;;;15.10;91.50;;;;;;5092498;28;20346;-65
2022/12/30 01:16:33;;;;;;;0.40;0.40;;;15.10;91.50;;;;;;5092376;28;20234;-65
2022/12/30 01:19:22;;;;;;;0.40;0.40;;;15.10;91.50;;;;;;5091370;28;20203;-65
2022/12/30 01:22:10;;;;;;;0.40;0.40;;;15.10;91.40;;;;;;5091933;28;20285;-65
2022/12/30 01:24:58;;;;;;;0.40;0.40;;;15.10;91.40;;;;;;5091214;28;20249;-65
2022/12/30 01:27:51;;;;;;;0.40;0.40;;;15.10;91.40;;;;;;5092371;28;20200;-65
2022/12/30 01:30:39;;;;;;;0.40;0.40;;;15.10;91.40;;;;;;5090123;28;20220;-65
2022/12/30 01:33:27;;;;;;;0.40;0.40;;;15.10;91.50;;;;;;5091580;28;20343;-65
2022/12/30 01:36:16;;;;;;;0.40;0.40;;;15.10;91.40;;;;;;5092215;28;20310;-65
2022/12/30 01:39:04;;;;;;;0.40;0.40;;;15.10;91.50;;;;;;5090810;28;20735;-65
2022/12/30 01:41:54;;;;;;;0.40;0.40;;;15.10;91.50;;;;;;5090699;28;20192;-65
2022/12/30 01:44:56;;;;;;;0.40;0.40;;;15.10;91.40;;;;;;5090938;28;20303;-65
2022/12/30 01:47:49;;;;;;;0.40;0.40;;;15.10;91.50;;;;;;5090767;28;20202;-65
2022/12/30 01:50:46;;;;;;;0.40;0.40;;;15.10;91.40;;;;;;5091852;28;20246;-65
2022/12/30 01:53:38;;;;;;;0.40;0.40;;;15.10;91.50;;;;;;5091076;28;20238;-65
2022/12/30 01:56:29;;;;;;;0.40;0.40;;;15.10;91.40;;;;;;5093374;28;20262;-65
2022/12/30 01:59:20;;;;;;;0.40;0.40;;;15.10;91.30;;;;;;5093592;28;20753;-65
2022/12/30 02:02:08;;;;;;;0.40;0.40;;;15.10;91.50;;;;;;5094829;28;20196;-65
2022/12/30 02:04:57;;;;;;;0.40;0.40;;;15.10;91.40;;;;;;5095594;28;20257;-65
2022/12/30 02:07:49;;;;;;;0.40;0.40;;;15.10;91.50;;;;;;5095291;28;20199;-65
2022/12/30 02:10:41;;;;;;;0.40;0.40;;;15.10;91.10;;;;;;5094385;28;20372;-65
2022/12/30 02:13:29;;;;;;;0.40;0.40;;;15.10;91.40;;;;;;5096436;28;20555;-65
2022/12/30 02:16:30;;;;;;;0.40;0.40;;;15.10;91.30;;;;;;5094102;28;20310;-66
2022/12/30 02:19:58;;;;;;;0.40;0.40;;;15.10;91.40;;;;;;5095625;28;20581;-66
2022/12/30 02:23:11;;;;;;;0.40;0.40;;;15.10;91.30;;;;;;5059277;28;20286;-66
2022/12/30 02:26:26;;;;;;;0.40;0.40;;;15.10;91.30;;;;;;5095510;28;20220;-66
2022/12/30 02:29:42;;;;;;;0.40;0.40;;;15.10;91.40;;;;;;5054862;28;20200;-65
2022/12/30 02:32:40;;;;;;;0.40;0.40;;;15.10;91.40;;;;;;5084824;28;20228;-65
2022/12/30 02:35:36;;;;;;;2.17;2.07;;;15.10;91.40;;;;;;5094054;28;20291;-66
2022/12/30 02:38:36;;;;;;;0.40;0.40;;;15.10;91.40;;;;;;5093011;28;20200;-66
2022/12/30 02:44:40;;;;;;;0.40;0.40;;;15.10;91.50;;;;;;5093690;28;20227;-65
2022/12/30 02:47:36;;;;;;;0.40;0.40;;;15.20;91.50;;;;;;5093131;28;20208;-66
2022/12/30 02:53:38;;;;;;;0.40;0.40;;;15.20;91.40;;;;;;5089156;28;20743;-65
2022/12/30 02:56:26;;;;;;;0.40;0.40;;;15.20;91.30;;;;;;5074181;28;20283;-65
2022/12/30 03:05:51;;;;;;;0.40;0.40;;;15.20;91.30;;;;;;5073832;28;20224;-65
2022/12/30 03:08:47;;;;;;;0.40;0.40;;;15.20;91.30;;;;;;5073510;28;20288;-65
2022/12/30 03:11:43;;;;;;;0.40;0.40;;;15.20;91.20;;;;;;5073567;28;20220;-65
2022/12/30 03:14:35;;;;;;;0.40;0.40;;;15.20;91.10;;;;;;5074262;28;20251;-66
2022/12/30 03:17:26;;;;;;;0.40;0.40;;;15.20;91.20;;;;;;5074960;28;20208;-65
2022/12/30 03:20:18;;;;;;;0.40;0.40;;;15.20;91.20;;;;;;5073424;28;20363;-65
2022/12/30 03:29:26;;;;;;;0.40;0.40;;;15.20;91.20;;;;;;5073410;28;20251;-66
2022/12/30 03:32:16;;;;;;;0.40;0.40;;;15.10;91.10;;;;;;5073434;28;20212;-66
2022/12/30 03:35:06;;;;;;;0.40;0.40;;;15.10;91.00;;;;;;5073145;28;20918;-65
2022/12/30 03:37:56;;;;;;;0.40;0.40;;;15.10;91.00;;;;;;5074266;28;20482;-65
2022/12/30 03:40:48;;;;;;;0.40;0.40;;;15.00;91.40;;;;;;5074237;28;20262;-65
2022/12/30 03:43:36;;;;;;;0.40;0.40;;;15.10;91.20;;;;;;5073135;28;20266;-65
2022/12/30 03:46:28;;;;;;;0.40;0.40;;;15.10;91.10;;;;;;5073317;28;20350;-66
2022/12/30 03:49:18;;;;;;;0.40;0.40;;;15.10;91.20;;;;;;5072290;28;20197;-66
2022/12/30 03:52:06;;;;;;;0.40;0.40;;;15.10;91.00;;;;;;5074606;28;20362;-65
2022/12/30 03:54:54;;;;;;;0.40;0.40;;;15.10;91.20;;;;;;5073582;28;20226;-65
2022/12/30 03:57:43;;;;;;;0.40;0.40;;;15.10;91.10;;;;;;5081938;28;20200;-66
2022/12/30 04:00:32;;;;;;;0.40;0.40;;;15.00;91.10;;;;;;5089535;28;20287;-66
2022/12/30 04:03:20;;;;;;;0.40;0.40;;;15.10;91.30;;;;;;5090196;28;20656;-66
2022/12/30 04:06:08;;;;;;;0.40;0.40;;;15.10;91.20;;;;;;5086404;28;20240;-66
2022/12/30 04:08:56;;;;;;;0.40;0.40;;;15.10;91.20;;;;;;5079875;28;20234;-65
2022/12/30 04:11:44;;;;;;;0.40;0.40;;;15.10;91.20;;;;;;5074194;28;20741;-65
2022/12/30 04:14:33;;;;;;;0.40;0.40;;;15.10;90.90;;;;;;5073464;28;20281;-66
2022/12/30 04:17:21;;;;;;;0.40;0.40;;;15.10;91.10;;;;;;5073344;28;20207;-66
2022/12/30 04:20:10;;;;;;;0.40;0.40;;;15.10;91.10;;;;;;5071525;28;20677;-65
2022/12/30 04:22:58;;;;;;;0.40;0.40;;;15.10;91.00;;;;;;5073689;28;20197;-66
2022/12/30 04:25:46;;;;;;;0.40;0.40;;;15.10;91.20;;;;;;5072002;28;20224;-65
2022/12/30 04:28:34;;;;;;;0.40;0.40;;;15.10;91.20;;;;;;5071916;28;20200;-65
2022/12/30 04:31:24;;;;;;;0.40;0.40;;;15.10;91.10;;;;;;5073242;28;20586;-65
2022/12/30 04:34:14;;;;;;;0.40;0.40;;;15.10;91.10;;;;;;5071678;28;20192;-66
2022/12/30 04:37:02;;;;;;;0.40;0.40;;;15.00;91.00;;;;;;5072790;28;20215;-65
2022/12/30 04:39:50;;;;;;;0.40;0.40;;;15.10;91.10;;;;;;5071896;28;20284;-65
2022/12/30 04:42:38;;;;;;;0.40;0.40;;;15.00;91.00;;;;;;5072170;28;20664;-65
2022/12/30 04:45:26;;;;;;;0.40;0.40;;;15.00;91.10;;;;;;5071539;28;20303;-65
2022/12/30 04:48:16;;;;;;;0.40;0.40;;;15.00;91.00;;;;;;5072183;28;20200;-65
2022/12/30 04:51:04;;;;;;;0.40;0.40;;;15.00;91.10;;;;;;5073758;28;20208;-66
2022/12/30 04:53:53;;;;;;;0.40;0.40;;;15.00;91.00;;;;;;5092100;28;20768;-66
2022/12/30 04:56:41;;;;;;;0.40;0.40;;;15.00;91.00;;;;;;5093188;28;20276;-65
2022/12/30 04:59:29;;;;;;;0.40;0.40;;;15.00;91.10;;;;;;5083308;28;20197;-66
2022/12/30 05:02:17;;;;;;;0.40;0.40;;;14.90;91.00;;;;;;5072394;28;20621;-65
2022/12/30 05:05:07;;;;;;;0.40;0.40;;;15.00;91.00;;;;;;5070877;28;20223;-66
2022/12/30 05:07:55;;;;;;;0.40;0.40;;;15.00;90.90;;;;;;5072373;28;20614;-65
2022/12/30 05:10:43;;;;;;;0.40;0.40;;;15.00;91.00;;;;;;5071028;28;20200;-66
2022/12/30 05:13:31;;;;;;;0.40;0.40;;;14.90;91.00;;;;;;5072269;28;20320;-65
2022/12/30 05:16:20;;;;;;;0.40;0.40;;;15.00;91.10;;;;;;5071472;28;20251;-65
2022/12/30 05:19:08;;;;;;;0.40;0.40;;;14.90;90.90;;;;;;5072153;28;20673;-65
2022/12/30 05:21:58;;;;;;;0.40;0.40;;;14.90;91.10;;;;;;5071827;28;20197;-65
2022/12/30 05:27:52;;;;;;;0.40;0.40;;;14.90;91.10;;;;;;5072272;28;20703;-65
2022/12/30 05:30:40;;;;;;;0.40;0.40;;;15.00;91.00;;;;;;5071764;28;20573;-65
2022/12/30 05:33:28;;;;;;;0.40;0.40;;;15.00;91.20;;;;;;5075895;28;20244;-65
2022/12/30 05:36:16;;;;;;;0.40;0.40;;;15.00;91.10;;;;;;5075259;28;20231;-65
2022/12/30 05:39:06;;;;;;;0.40;0.40;;;15.00;91.20;;;;;;5075944;28;20249;-65
2022/12/30 05:41:54;;;;;;;0.40;0.40;;;15.00;91.10;;;;;;5075580;28;20278;-65
2022/12/30 05:44:42;;;;;;;0.40;0.40;;;15.00;91.40;;;;;;5075839;28;20307;-66
2022/12/30 05:47:30;;;;;;;0.40;0.40;;;15.00;91.00;;;;;;5075490;28;20688;-65
2022/12/30 05:50:18;;;;;;;0.40;0.40;;;15.00;91.00;;;;;;5074076;28;20661;-65
2022/12/30 05:53:06;;;;;;;0.40;0.40;;;15.00;91.00;;;;;;5075328;28;20224;-65
2022/12/30 05:55:56;;;;;;;0.40;0.40;;;15.00;91.00;;;;;;5074853;28;20299;-65
2022/12/30 05:58:44;;;;;;;0.40;0.40;;;15.00;91.00;;;;;;5075491;28;20207;-66
2022/12/30 06:01:32;;;;;;;0.40;0.40;;;15.00;91.00;;;;;;5075191;28;20281;-65
2022/12/30 06:04:20;;;;;;;0.40;0.40;;;15.00;90.80;;;;;;5075624;28;20227;-65
2022/12/30 06:07:08;;;;;;;0.40;0.40;;;15.00;91.00;;;;;;5074953;28;20205;-66
2022/12/30 06:09:56;;;;;;;0.40;0.40;;;15.00;90.90;;;;;;5074748;28;20681;-65
2022/12/30 06:12:46;;;;;;;0.40;0.40;;;15.00;91.00;;;;;;5074363;28;20216;-65
2022/12/30 06:15:34;;;;;;;0.40;0.40;;;15.00;90.90;;;;;;5075508;28;20260;-66
2022/12/30 06:18:22;;;;;;;0.40;0.40;;;14.90;90.80;;;;;;5074804;28;20204;-65
2022/12/30 06:21:10;;;;;;;0.40;0.40;;;14.90;90.90;;;;;;5074874;28;20724;-65
2022/12/30 06:23:58;;;;;;;0.40;0.40;;;14.90;90.90;;;;;;5075421;28;20684;-65
2022/12/30 06:26:46;;;;;;;0.40;0.40;;;14.90;90.80;;;;;;5075668;28;20673;-65
2022/12/30 06:29:36;;;;;;;0.40;0.40;;;14.90;90.80;;;;;;5075044;28;20201;-66
2022/12/30 06:32:24;;;;;;;0.40;0.40;;;14.90;90.80;;;;;;5074619;28;20207;-65
2022/12/30 06:35:12;;;;;;;0.40;0.40;;;14.90;90.90;;;;;;5100992;22;20236;-70
2022/12/30 06:38:00;;;;;;;0.40;0.40;;;14.90;90.90;;;;;;5094876;28;20241;-71
2022/12/30 06:40:48;;;;;;;0.40;0.40;;;14.90;90.80;;;;;;5096158;28;20679;-71
2022/12/30 06:43:37;;;;;;;0.40;0.40;;;14.90;90.80;;;;;;5095791;28;20673;-71
2022/12/30 06:46:26;;;;;;;0.40;0.40;;;14.80;90.80;;;;;;5096548;28;20224;-71
2022/12/30 06:49:14;;;;;;;0.40;0.40;;;14.80;90.80;;;;;;5096187;28;20281;-68
2022/12/30 06:52:02;;;;;;;0.40;0.40;;;14.80;90.90;;;;;;5096696;28;20550;-71
2022/12/30 06:54:50;;;;;;;0.40;0.40;;;14.80;94.60;;;;;;5097202;28;20266;-70
2022/12/30 06:57:38;;;;;;;0.40;0.40;;;14.90;91.00;;;;;;5096693;28;20283;-70
2022/12/30 07:00:27;;;;;;;0.40;0.40;;;14.90;91.00;;;;;;5095836;28;20231;-70
2022/12/30 07:03:16;;;;;;;0.40;0.40;;;14.90;91.30;;;;;;5096896;28;20196;-70
2022/12/30 07:06:05;;;;;;;0.40;0.40;;;14.90;91.00;;;;;;5096034;28;20231;-71
2022/12/30 07:08:53;;;;;;;0.40;0.40;;;14.90;90.90;;;;;;5095748;28;20200;-71
2022/12/30 07:11:41;;;;;;;0.40;0.40;;;14.90;91.00;;;;;;5096866;28;20207;-70
2022/12/30 07:14:29;;;;;;;0.40;0.40;;;14.90;90.90;;;;;;5096752;28;20303;-71
2022/12/30 07:17:17;;;;;;;0.40;0.40;;;14.90;90.80;;;;;;5096880;28;20208;-70
2022/12/30 07:20:08;;;;;;;0.40;0.40;;;14.90;90.90;;;;;;5095144;28;20200;-70
2022/12/30 07:22:56;;;;;;;0.40;0.40;;;14.90;90.90;;;;;;5094682;28;20668;-70
2022/12/30 07:25:50;;;;;;;0.40;0.40;;;14.90;90.70;;;;;;5095979;28;20719;-69
2022/12/30 07:28:38;;;;;;;0.40;0.40;;;14.90;90.80;;;;;;5095698;28;20231;-70
2022/12/30 07:31:26;;;;;;;0.40;0.40;;;14.90;90.80;;;;;;5096177;28;20207;-70
2022/12/30 07:34:15;;;;;;;0.40;0.40;;;14.90;90.70;;;;;;5096497;28;20299;-70
2022/12/30 07:37:05;;;;;;;0.40;0.40;;;14.90;90.90;;;;;;5094425;28;20244;-70
2022/12/30 07:39:53;;;;;;;0.40;0.40;;;14.90;91.00;;;;;;5094237;28;20619;-69
2022/12/30 07:42:41;;;;;;;0.40;0.40;;;14.80;90.80;;;;;;5094062;28;20287;-74
2022/12/30 07:45:37;;;;;;;0.40;0.40;;;14.80;90.80;;;;;;5095060;28;20212;-69
2022/12/30 07:48:25;;;;;;;1.52;1.52;;;14.80;90.80;;;;;;5094415;28;20192;-71
2022/12/30 07:51:15;;;;;;;0.40;0.40;;;14.80;90.80;;;;;;5095252;28;20602;-69
2022/12/30 07:54:04;;;;;;;0.40;0.40;;;14.80;90.70;;;;;;5094545;28;20220;-71
2022/12/30 07:56:54;;;;;;;0.40;0.40;;;14.80;90.80;;;;;;5094327;28;20299;-72
2022/12/30 07:59:42;;;;;;;0.40;0.40;;;14.80;90.80;;;;;;5095167;28;20254;-71
2022/12/30 08:02:30;;;;;;;0.40;0.40;;;14.80;90.90;;;;;;5094387;28;20291;-70
2022/12/30 08:05:19;;;;;;;0.40;0.40;;;14.80;90.80;;;;;;5094885;28;20611;-71
2022/12/30 08:08:08;;;;;;;0.40;0.40;;;14.80;90.70;;;;;;5095109;28;20231;-68
2022/12/30 08:10:58;;;;;;;0.40;0.40;;;14.80;90.70;;;;;;5095201;28;20691;-71
2022/12/30 08:13:46;;;;;;;0.40;0.40;;;14.70;90.70;;;;;;5093408;28;20216;-70
2022/12/30 08:16:34;;;;;;;0.40;0.40;;;14.70;90.60;;;;;;5095135;28;20299;-70
2022/12/30 08:19:23;;;;;;;0.40;0.40;;;14.80;90.60;;;;;;5093964;28;20658;-71
2022/12/30 08:22:11;;;;;;;0.40;0.40;;;14.80;90.80;;;;;;5095293;28;20756;-70
2022/12/30 08:24:59;;;;;;;0.40;0.40;;;14.80;90.80;;;;;;5094532;28;20257;-70
2022/12/30 08:27:48;;;;;;;0.40;0.40;;;14.80;90.70;;;;;;5093928;28;20210;-70
2022/12/30 08:30:39;;;;;;;0.40;0.40;;;14.80;90.80;;;;;;5094047;28;20346;-71
2022/12/30 08:33:27;;;;;;;0.40;0.40;;;14.80;90.80;;;;;;5093830;28;20279;-71
2022/12/30 08:36:19;;;;;;;0.40;0.40;;;14.90;90.80;;;;;;5094128;28;20310;-71
2022/12/30 08:39:07;;;;;;;0.40;0.40;;;14.90;90.80;;;;;;5094381;28;20279;-69
2022/12/30 08:41:56;;;;;;;0.40;0.40;;;14.90;90.70;;;;;;5092283;28;20253;-71
2022/12/30 08:44:45;;;;;;;0.40;0.40;;;14.90;90.70;;;;;;5093396;28;20188;-70
2022/12/30 08:47:34;;;;;;;0.40;0.40;;;14.90;90.70;;;;;;5095216;28;20305;-70
2022/12/30 08:50:22;;;;;;;0.40;0.40;;;14.90;90.70;;;;;;5094507;28;20278;-70
2022/12/30 08:53:10;;;;;;;0.40;0.40;;;14.90;90.70;;;;;;5093689;28;20279;-71
2022/12/30 08:56:01;;;;;;;0.40;0.40;;;14.40;90.40;;;;;;5093781;28;20450;-70
2022/12/30 08:58:49;;;;;;;0.40;0.40;;;14.90;90.70;;;;;;5093945;28;20208;-70
2022/12/30 09:01:40;;;;;;;0.40;0.40;;;14.90;90.70;;;;;;5093219;28;20200;-71
2022/12/30 09:04:29;;;;;;;0.40;0.40;;;14.90;90.70;;;;;;5094356;28;20192;-72
2022/12/30 09:07:17;;;;;;;0.40;0.40;;;14.90;90.50;;;;;;5092007;28;20228;-71
2022/12/30 09:10:25;;;;;;;0.40;0.40;;;14.90;90.60;;;;;;5093530;28;20196;-71
2022/12/30 09:13:13;;;;;;;0.40;0.40;;;14.90;90.60;;;;;;5094574;28;20486;-71
2022/12/30 09:16:01;;;;;;;0.40;0.40;;;14.90;90.60;;;;;;5094590;28;20298;-72
2022/12/30 09:18:52;;;;;;;0.40;0.40;;;14.90;90.60;;;;;;5094580;28;20586;-70
2022/12/30 09:21:40;;;;;;;0.40;0.40;;;14.90;90.50;;;;;;5093564;28;20284;-69
2022/12/30 09:24:28;;;;;;;0.40;0.40;;;14.90;90.60;;;;;;5094487;28;20200;-70
2022/12/30 09:27:16;;;;;;;0.40;0.40;;;14.90;90.50;;;;;;5094192;28;20275;-70
2022/12/30 09:30:06;;;;;;;0.40;0.40;;;14.90;90.60;;;;;;5093490;28;20196;-71
2022/12/30 09:32:54;;;;;;;0.40;0.40;;;14.90;90.70;;;;;;5093440;28;20200;-73
2022/12/30 09:35:44;;;;;;;0.40;0.40;;;14.90;90.50;;;;;;5093823;28;20738;-73
2022/12/30 09:38:32;;;;;;;0.40;0.40;;;14.90;90.60;;;;;;5093745;28;20265;-72
2022/12/30 09:44:51;;;;;;;0.40;0.40;;;14.90;90.60;;;;;;5092448;28;20688;-72
2022/12/30 09:47:45;;;;;;;0.40;0.40;;;14.90;90.50;;;;;;5092340;28;20207;-72
2022/12/30 09:50:40;;;;;;;0.40;0.40;;;14.90;90.60;;;;;;5094517;28;20206;-71
2022/12/30 09:53:39;;;;;;;0.40;0.40;;;14.90;90.50;;;;;;5092986;28;20195;-71
2022/12/30 09:56:30;;;;;;;0.40;0.40;;;14.90;90.50;;;;;;5094094;28;20499;-70
2022/12/30 09:59:21;;;;;;;0.40;0.40;;;14.90;90.60;;;;;;5092081;28;20270;-71
2022/12/30 10:02:20;;;;;;;0.40;0.40;;;14.90;90.60;;;;;;5093418;28;20267;-71
2022/12/30 10:05:13;;;;;;;0.40;0.40;;;15.00;90.60;;;;;;5093980;28;20742;-72
2022/12/30 10:08:16;;;;;;;0.40;0.40;;;15.00;90.60;;;;;;5094167;28;20645;-71
2022/12/30 10:11:26;;;;;;;0.40;0.40;;;15.00;90.50;;;;;;5093773;28;20558;-70
2022/12/30 10:14:23;;;;;;;0.40;0.40;;;15.00;90.50;;;;;;5092577;28;20211;-71
2022/12/30 10:17:22;;;;;;;0.40;0.40;;;15.00;90.40;;;;;;5094832;28;20237;-70
2022/12/30 10:20:26;;;;;;;3.38;3.15;;;15.10;90.50;;;;;;5097130;28;20279;-70
2022/12/30 10:23:24;;;;;;;0.40;0.40;;;15.10;90.40;;;;;;5095098;28;20206;-70
2022/12/30 10:26:19;;;;;;;0.40;0.40;;;15.10;90.50;;;;;;5096222;28;20215;-71
2022/12/30 10:29:14;;;;;;;0.40;0.40;;;15.10;90.50;;;;;;5094865;28;20240;-69
2022/12/30 10:32:18;;;;;;;0.40;0.40;;;15.10;90.40;;;;;;5096366;28;20279;-71
2022/12/30 10:35:15;;;;;;;0.40;0.40;;;15.10;90.40;;;;;;5094614;28;20223;-70
2022/12/30 10:38:10;;;;;;;0.40;0.40;;;15.10;90.30;;;;;;5094216;28;20199;-71
2022/12/30 10:41:09;;;;;;;0.40;0.40;;;15.10;90.40;;;;;;5095035;28;20203;-70
2022/12/30 10:44:15;;;;;;;0.40;0.40;;;15.10;90.30;;;;;;5096807;28;20204;-71
2022/12/30 10:47:27;;;;;;;0.40;0.40;;;15.10;90.40;;;;;;5096986;28;20196;-71
2022/12/30 10:50:25;;;;;;;0.40;0.40;;;15.10;90.40;;;;;;5096554;28;20200;-71
2022/12/30 10:53:18;;;;;;;0.40;0.40;;;15.10;90.30;;;;;;5096249;28;20277;-70
2022/12/30 10:56:16;;;;;;;0.40;0.40;;;15.10;90.40;;;;;;5096164;28;20348;-70
2022/12/30 10:59:12;;;;;;;0.40;0.40;;;15.10;90.40;;;;;;5096192;28;20192;-70
2022/12/30 11:02:11;;;;;;;0.40;0.40;;;15.10;90.20;;;;;;5096346;28;20267;-71
2022/12/30 11:05:01;;;;;;;0.40;0.40;;;15.10;90.30;;;;;;5097094;28;20234;-70
2022/12/30 11:07:56;;;;;;;0.40;0.40;;;15.10;90.30;;;;;;5095716;28;20204;-72
2022/12/30 11:10:44;;;;;;;0.40;0.40;;;15.10;90.30;;;;;;5095403;28;20680;-70
2022/12/30 11:16:39;;;;;;;0.40;0.40;;;15.10;90.40;;;;;;5095004;28;20223;-71
2022/12/30 11:19:28;;;;;;;0.40;0.40;;;15.10;90.30;;;;;;5096066;28;20200;-69
2022/12/30 11:22:16;;;;;;;0.40;0.40;;;15.10;90.30;;;;;;5095912;28;20203;-71
2022/12/30 11:25:25;;;;;;;0.40;0.40;;;15.10;90.30;;;;;;5096303;28;20341;-70
2022/12/30 11:28:17;;;;;;;0.40;0.40;;;15.10;90.30;;;;;;5095976;28;20208;-71
2022/12/30 11:31:08;;;;;;;0.40;0.40;;;15.20;90.30;;;;;;5095754;28;20283;-71
2022/12/30 11:34:01;;;;;;;0.40;0.40;;;15.10;90.30;;;;;;5095218;28;20200;-70
2022/12/30 11:36:49;;;;;;;0.40;0.40;;;15.20;90.40;;;;;;5095180;28;20223;-70
2022/12/30 11:39:37;;;;;;;0.40;0.40;;;15.20;90.40;;;;;;5094520;28;20210;-70
2022/12/30 11:42:31;;;;;;;0.40;0.40;;;15.20;90.40;;;;;;5096417;28;20203;-70
2022/12/30 11:45:20;;;;;;;0.40;0.40;;;15.20;90.30;;;;;;5094992;28;20302;-71
2022/12/30 11:48:19;;;;;;;0.40;0.40;;;15.20;90.20;;;;;;5095212;28;20196;-70
2022/12/30 11:51:17;;;;;;;0.40;0.40;;;15.20;90.30;;;;;;5095429;28;20577;-72
2022/12/30 11:54:12;;;;;;;0.40;0.40;;;15.20;90.20;;;;;;5094317;28;20336;-72
2022/12/30 11:57:02;;;;;;;0.40;0.40;;;15.20;90.20;;;;;;5095696;28;20245;-70
2022/12/30 11:59:54;;;;;;;0.40;0.40;;;15.20;90.20;;;;;;5095258;28;20200;-71
2022/12/30 12:02:47;;;;;;;0.40;0.40;;;15.20;90.30;;;;;;5096175;28;20283;-72
2022/12/30 12:05:40;;;;;;;0.40;0.40;;;15.20;90.30;;;;;;5095092;28;20251;-71
2022/12/30 12:08:34;;;;;;;0.40;0.40;;;15.20;90.30;;;;;;5094743;28;20230;-71
2022/12/30 12:11:26;;;;;;;0.40;0.40;;;15.20;90.20;;;;;;5094452;28;20196;-70
2022/12/30 12:14:18;;;;;;;0.40;0.40;;;15.20;90.30;;;;;;5095828;28;20227;-71
2022/12/30 12:17:18;;;;;;;0.40;0.40;;;15.20;90.20;;;;;;5094381;28;20228;-70
2022/12/30 12:20:17;;;;;;;0.40;0.40;;;15.20;90.20;;;;;;5094127;28;20329;-71
2022/12/30 12:23:19;;;;;;;0.40;0.40;;;15.20;90.30;;;;;;5094571;28;20210;-70
2022/12/30 12:26:13;;;;;;;0.40;0.40;;;15.20;90.30;;;;;;5094891;28;20208;-70
2022/12/30 12:29:01;;;;;;;0.40;0.40;;;15.20;90.30;;;;;;5095772;28;20288;-70
2022/12/30 12:32:18;;;;;;;0.40;0.40;;;15.20;90.30;;;;;;5094726;28;20215;-71
2022/12/30 12:35:35;;;;;;;0.40;0.40;;;15.20;90.30;;;;;;5094506;28;20228;-71
2022/12/30 12:38:38;;;;;;;0.40;0.40;;;15.30;90.30;;;;;;5093267;28;20200;-70
2022/12/30 12:41:46;;;;;;;0.40;0.40;;;15.20;90.60;;;;;;5093799;28;20202;-70
2022/12/30 12:44:59;;;;;;;0.40;0.40;;;15.20;90.30;;;;;;5094718;28;20314;-70
2022/12/30 12:48:04;;;;;;;0.40;0.40;;;15.30;90.30;;;;;;5093957;28;20241;-71
2022/12/30 12:51:12;;;;;;;0.40;0.40;;;15.20;90.30;;;;;;5093681;28;20202;-70
2022/12/30 12:54:23;;;;;;;0.40;0.40;;;15.20;90.20;;;;;;5093946;28;20591;-70
2022/12/30 12:57:38;;;;;;;0.40;0.40;;;15.20;90.20;;;;;;5094683;28;20219;-70
2022/12/30 13:00:36;;;;;;;0.40;0.40;;;15.30;90.30;;;;;;5093942;28;20235;-71
2022/12/30 13:03:38;;;;;;;0.40;0.40;;;15.20;90.30;;;;;;5093641;28;20227;-69
2022/12/30 13:06:35;;;;;;;0.40;0.40;;;15.20;90.30;;;;;;5093644;28;20208;-70
2022/12/30 13:09:55;;;;;;;0.40;0.40;;;15.20;90.30;;;;;;5092945;28;20206;-70
2022/12/30 13:13:01;;;;;;;0.40;0.40;;;15.20;90.30;;;;;;5093285;28;20200;-71
2022/12/30 13:15:54;;;;;;;0.40;0.40;;;15.20;90.30;;;;;;5093432;28;20299;-71
2022/12/30 13:18:45;;;;;;;0.40;0.40;;;15.30;90.30;;;;;;5092111;28;20208;-71
2022/12/30 13:21:33;;;;;;;0.40;0.40;;;15.20;90.20;;;;;;5093766;28;20259;-71
2022/12/30 13:24:27;;;;;;;0.40;0.40;;;15.20;90.20;;;;;;5093999;28;20210;-71
2022/12/30 13:27:23;;;;;;;0.40;0.40;;;15.20;90.20;;;;;;5094379;28;20279;-71
2022/12/30 13:30:16;;;;;;;0.40;0.40;;;15.20;90.20;;;;;;5094112;28;20279;-72
2022/12/30 13:33:12;;;;;;;0.40;0.40;;;15.30;90.20;;;;;;5093951;28;20282;-72
2022/12/30 13:36:08;;;;;;;0.40;0.40;;;15.30;90.30;;;;;;5093637;28;20224;-71
2022/12/30 13:39:08;;;;;;;0.40;0.40;;;15.30;90.20;;;;;;5094207;28;20204;-72
2022/12/30 13:42:15;;;;;;;0.40;0.40;;;15.30;90.20;;;;;;5093395;28;20346;-71
2022/12/30 13:45:14;;;;;;;0.40;0.40;;;15.30;90.30;;;;;;5093901;28;20216;-72
2022/12/30 13:48:13;;;;;;;0.40;0.40;;;15.30;90.30;;;;;;5091466;28;20196;-71
2022/12/30 13:51:04;;;;;;;0.40;0.40;;;15.30;90.50;;;;;;5093238;28;20334;-71
2022/12/30 13:53:56;;;;;;;0.40;0.40;;;15.30;90.30;;;;;;5098110;28;20203;-71
2022/12/30 13:56:46;;;;;;;0.40;0.40;;;15.30;90.30;;;;;;5097318;28;20583;-70
2022/12/30 13:59:37;;;;;;;0.40;0.40;;;15.30;90.20;;;;;;5097527;28;20200;-70
2022/12/30 14:02:50;;;;;;;0.40;0.40;;;15.30;90.20;;;;;;5097780;28;20269;-70
2022/12/30 14:06:00;;;;;;;0.40;0.40;;;15.50;90.30;;;;;;5097782;28;20216;-72
2022/12/30 14:08:52;;;;;;;0.40;0.40;;;15.20;90.20;;;;;;5097207;28;20283;-70
2022/12/30 14:12:33;;;;;;;0.40;0.40;;;15.30;90.20;;;;;;5096805;28;20275;-72
2022/12/30 14:15:50;;;;;;;0.40;0.40;;;15.20;90.20;;;;;;5096920;28;20284;-70
2022/12/30 14:18:43;;;;;;;0.40;0.40;;;15.20;90.20;;;;;;5096697;28;20224;-71
2022/12/30 14:21:49;;;;;;;0.40;0.40;;;15.20;90.20;;;;;;5095882;28;20211;-70
2022/12/30 14:24:48;;;;;;;0.40;0.40;;;15.20;90.00;;;;;;5096996;28;20700;-70
2022/12/30 14:27:44;;;;;;;0.40;0.40;;;15.20;90.20;;;;;;5096824;28;20196;-72
2022/12/30 14:30:39;;;;;;;0.40;0.40;;;15.20;90.20;;;;;;5096762;28;20250;-71
2022/12/30 14:33:33;;;;;;;0.40;0.40;;;15.20;90.20;;;;;;5096968;28;20226;-71
2022/12/30 14:36:24;;;;;;;0.40;0.40;;;15.20;90.20;;;;;;5096862;28;20251;-70
2022/12/30 14:39:16;;;;;;;0.40;0.40;;;15.20;90.30;;;;;;5095738;28;20196;-71
2022/12/30 14:42:20;;;;;;;0.40;0.40;;;15.20;90.30;;;;;;5096110;28;20279;-71
2022/12/30 14:45:26;;;;;;;0.40;0.40;;;15.20;90.20;;;;;;5095812;28;20223;-70
2022/12/30 14:48:59;;;;;;;0.40;0.40;;;15.20;90.30;;;;;;5096091;28;20698;-71
2022/12/30 14:51:59;;;;;;;0.40;0.40;;;15.20;90.30;;;;;;5094535;28;20257;-71
2022/12/30 14:54:53;;;;;;;0.40;0.40;;;15.20;90.10;;;;;;5095909;28;20203;-72
2022/12/30 14:57:43;;;;;;;0.40;0.40;;;15.20;90.20;;;;;;5096662;28;20214;-72
2022/12/30 15:00:35;;;;;;;1.53;1.53;;;15.20;90.20;;;;;;5094053;28;20486;-71
2022/12/30 15:03:24;;;;;;;0.40;0.40;;;15.20;90.20;;;;;;5094518;28;20206;-72
2022/12/30 15:06:14;;;;;;;0.40;0.40;;;15.20;90.20;;;;;;5096117;28;20595;-72
2022/12/30 15:09:07;;;;;;;0.40;0.40;;;15.20;90.20;;;;;;5096835;28;20251;-70
2022/12/30 15:12:01;;;;;;;0.40;0.40;;;15.20;90.30;;;;;;5095166;28;20279;-70
2022/12/30 15:14:52;;;;;;;0.40;0.40;;;15.10;90.10;;;;;;5095676;28;20281;-71
2022/12/30 15:17:45;;;;;;;0.40;0.40;;;15.10;90.30;;;;;;5096427;28;20739;-70
2022/12/30 15:20:33;;;;;;;0.40;0.40;;;15.10;90.30;;;;;;5094185;28;20238;-69
2022/12/30 15:23:26;;;;;;;0.40;0.40;;;15.10;90.30;;;;;;5095693;28;20232;-71
2022/12/30 15:26:17;;;;;;;0.40;0.40;;;15.10;90.30;;;;;;5095654;28;20295;-73
2022/12/30 15:29:08;;;;;;;0.40;0.40;;;15.10;90.30;;;;;;5095551;28;20604;-70
2022/12/30 15:31:59;;;;;;;0.40;0.40;;;15.10;90.30;;;;;;5094784;28;20200;-71
2022/12/30 15:34:47;;;;;;;0.40;0.40;;;15.10;90.20;;;;;;5095070;28;20223;-69
2022/12/30 15:37:36;;;;;;;0.40;0.40;;;15.10;90.30;;;;;;5095902;28;20638;-70
2022/12/30 15:40:28;;;;;;;0.40;0.40;;;15.10;90.30;;;;;;5095658;28;20208;-71
2022/12/30 15:43:19;;;;;;;0.40;0.40;;;15.10;90.40;;;;;;5095266;28;20200;-72
2022/12/30 15:46:24;;;;;;;0.40;0.40;;;15.10;90.30;;;;;;5095650;28;20243;-71
2022/12/30 15:49:14;;;;;;;0.40;0.40;;;15.10;90.30;;;;;;5094936;28;20707;-70
2022/12/30 15:52:07;;;;;;;0.40;0.40;;;15.10;90.40;;;;;;5095655;28;20283;-71
2022/12/30 15:54:58;;;;;;;0.40;0.40;;;15.10;90.40;;;;;;5094550;28;20709;-70
2022/12/30 15:57:47;;;;;;;0.40;0.40;;;15.10;90.30;;;;;;5094929;28;20684;-70